Time;durP1;ratioP1;P1;durP2;ratioP2;P2;SDS_P1;SDS_P2;PMS_P1;PMS_P2;Temp;Humidity;BMP_temperature;BMP_pressure;BME280_temperature;BME280_humidity;BME280_pressure;Samples;Min_cycle;Max_cycle;Signal;HPM_P1;HPM_P2
2023/12/26 00:00:18;;;;;;;7.15;1.95;;;9.80;99.90;;;;;;5012746;28;20401;-88
2023/12/26 00:02:44;;;;;;;6.97;1.80;;;9.80;99.90;;;;;;5013337;28;20415;-87
2023/12/26 00:05:09;;;;;;;8.77;1.77;;;9.80;99.90;;;;;;5012498;28;20426;-91
2023/12/26 00:07:35;;;;;;;6.03;1.40;;;10.10;99.90;;;;;;5012405;28;20939;-88
2023/12/26 00:10:01;;;;;;;6.70;1.35;;;9.90;99.90;;;;;;5013399;28;20414;-88
2023/12/26 00:12:26;;;;;;;5.63;1.40;;;10.00;99.90;;;;;;5012689;28;20909;-89
2023/12/26 00:14:52;;;;;;;4.40;1.30;;;10.00;99.90;;;;;;5013606;28;20409;-90
2023/12/26 00:17:18;;;;;;;4.95;1.13;;;10.00;99.90;;;;;;5011556;28;20970;-90
2023/12/26 00:19:45;;;;;;;5.90;1.33;;;9.90;99.90;;;;;;5013148;28;20592;-89
2023/12/26 00:22:12;;;;;;;6.05;1.48;;;9.90;99.90;;;;;;5012279;28;20401;-90
2023/12/26 00:24:38;;;;;;;5.03;1.70;;;10.00;99.90;;;;;;5012894;28;20884;-89
2023/12/26 00:27:03;;;;;;;7.33;1.60;;;9.80;99.90;;;;;;5012474;28;20437;-91
2023/12/26 00:29:29;;;;;;;5.10;1.27;;;9.90;99.90;;;;;;5013087;28;20401;-90
2023/12/26 00:31:55;;;;;;;7.35;1.23;;;10.40;99.90;;;;;;5012520;28;20795;-90
2023/12/26 00:34:20;;;;;;;5.63;1.10;;;9.90;99.90;;;;;;5012050;28;20401;-88
2023/12/26 00:36:46;;;;;;;5.93;1.08;;;9.90;99.90;;;;;;5012797;28;20398;-91
2023/12/26 00:39:14;;;;;;;6.28;0.88;;;10.10;99.90;;;;;;5012040;28;20409;-90
2023/12/26 00:41:39;;;;;;;6.60;0.88;;;9.90;99.90;;;;;;5012789;28;20447;-89
2023/12/26 00:44:05;;;;;;;8.27;0.80;;;9.90;99.90;;;;;;5012160;28;20445;-93
2023/12/26 00:46:32;;;;;;;10.98;0.90;;;10.20;99.90;;;;;;5012444;28;20437;-93
2023/12/26 00:48:58;;;;;;;10.15;1.08;;;10.40;99.90;;;;;;5012111;28;20406;-88
2023/12/26 00:51:23;;;;;;;13.82;1.13;;;10.20;99.90;;;;;;5011706;28;20417;-89
2023/12/26 00:53:49;;;;;;;10.48;0.70;;;10.10;99.90;;;;;;5013305;28;20428;-88
2023/12/26 00:56:15;;;;;;;12.43;0.80;;;10.20;99.90;;;;;;5011399;28;20397;-89
2023/12/26 00:58:40;;;;;;;13.80;1.27;;;9.90;99.90;;;;;;5012919;28;20401;-91
2023/12/26 01:01:06;;;;;;;10.88;1.20;;;10.10;99.90;;;;;;5011876;28;20417;-92
2023/12/26 01:03:32;;;;;;;18.70;1.90;;;10.10;99.90;;;;;;5012535;28;20426;-91
2023/12/26 01:05:57;;;;;;;14.60;1.73;;;10.00;99.90;;;;;;5028697;28;20967;-93
2023/12/26 01:08:23;;;;;;;13.48;1.63;;;9.90;99.90;;;;;;5012606;28;20504;-92
2023/12/26 01:10:51;;;;;;;14.05;1.40;;;10.10;99.90;;;;;;5012693;28;20970;-88
2023/12/26 01:13:16;;;;;;;16.15;1.42;;;9.90;99.90;;;;;;5011992;28;20409;-90
2023/12/26 01:15:42;;;;;;;18.20;1.85;;;9.80;99.90;;;;;;5029039;28;20428;-90
2023/12/26 01:18:08;;;;;;;17.02;1.90;;;9.90;99.90;;;;;;5011242;28;20406;-91
2023/12/26 01:20:34;;;;;;;15.07;1.70;;;10.20;99.90;;;;;;5012771;28;20412;-91
2023/12/26 01:23:00;;;;;;;13.52;1.58;;;9.90;99.90;;;;;;5011817;28;20467;-89
2023/12/26 01:25:25;;;;;;;16.97;1.40;;;10.10;99.90;;;;;;5011713;28;20437;-89
2023/12/26 01:27:51;;;;;;;19.00;1.60;;;9.80;99.90;;;;;;5012178;28;20421;-90
2023/12/26 01:30:17;;;;;;;15.27;1.30;;;10.50;99.90;;;;;;5031839;28;20422;-91
2023/12/26 01:32:42;;;;;;;20.20;1.33;;;9.90;99.90;;;;;;5016641;28;20444;-92
2023/12/26 01:35:08;;;;;;;15.60;1.20;;;10.20;99.90;;;;;;5031842;28;20440;-88
2023/12/26 01:37:34;;;;;;;18.55;1.30;;;9.70;99.90;;;;;;5016039;28;20405;-89
2023/12/26 01:39:59;;;;;;;14.93;1.53;;;9.70;99.90;;;;;;5015796;28;20927;-93
2023/12/26 01:42:26;;;;;;;15.57;1.40;;;10.00;99.90;;;;;;5015953;28;20912;-91
2023/12/26 01:44:51;;;;;;;17.52;1.42;;;9.80;99.90;;;;;;5031928;28;20428;-89
2023/12/26 01:47:18;;;;;;;17.07;1.87;;;9.90;99.90;;;;;;5015554;28;20412;-92
2023/12/26 01:49:44;;;;;;;18.07;1.90;;;9.70;99.90;;;;;;5015914;28;20447;-90
2023/12/26 01:52:12;;;;;;;15.52;1.48;;;9.80;99.90;;;;;;5015115;28;20757;-89
2023/12/26 01:54:39;;;;;;;20.20;1.52;;;9.70;99.90;;;;;;5016092;28;20411;-92
2023/12/26 01:57:08;;;;;;;17.90;1.53;;;9.80;99.90;;;;;;5014671;28;20406;-89
2023/12/26 01:59:36;;;;;;;14.50;1.27;;;10.00;99.90;;;;;;5048539;28;20947;-88
2023/12/26 02:02:03;;;;;;;14.20;1.65;;;9.70;99.90;;;;;;5015969;28;20420;-88
2023/12/26 02:04:29;;;;;;;16.42;1.55;;;9.70;99.90;;;;;;5031458;28;20683;-90
2023/12/26 02:06:57;;;;;;;15.23;1.92;;;9.50;99.90;;;;;;5015260;28;20440;-92
2023/12/26 02:09:24;;;;;;;16.90;1.80;;;9.90;99.90;;;;;;5014684;28;20897;-92
2023/12/26 02:11:51;;;;;;;15.93;1.85;;;9.90;99.90;;;;;;5015990;28;20402;-92
2023/12/26 02:14:16;;;;;;;15.90;1.90;;;9.40;99.90;;;;;;5031588;28;20494;-93
2023/12/26 02:16:45;;;;;;;16.73;1.40;;;9.90;99.90;;;;;;5014980;28;20436;-87
2023/12/26 02:19:10;;;;;;;13.70;1.63;;;9.90;99.90;;;;;;5014459;28;20449;-92
2023/12/26 02:21:36;;;;;;;18.20;1.90;;;10.20;99.90;;;;;;5015134;28;20425;-90
2023/12/26 02:24:02;;;;;;;18.20;1.50;;;10.10;99.90;;;;;;5014947;28;20433;-88
2023/12/26 02:26:30;;;;;;;15.77;1.60;;;9.50;99.90;;;;;;5013859;28;20413;-89
2023/12/26 02:28:57;;;;;;;14.67;1.73;;;9.60;99.90;;;;;;5015036;28;20409;-93
2023/12/26 02:31:25;;;;;;;13.98;1.40;;;9.50;99.90;;;;;;5029941;28;20401;-89
2023/12/26 02:33:52;;;;;;;14.70;1.80;;;9.40;99.90;;;;;;5016117;28;20405;-91
2023/12/26 02:36:17;;;;;;;13.30;1.30;;;9.40;99.90;;;;;;5014207;28;20788;-92
2023/12/26 02:38:43;;;;;;;11.27;1.40;;;9.30;99.90;;;;;;5013892;28;20412;-92
2023/12/26 02:41:09;;;;;;;14.43;1.58;;;9.30;99.90;;;;;;5014890;28;20886;-87
2023/12/26 02:43:34;;;;;;;13.73;1.87;;;9.30;99.90;;;;;;5014093;28;20440;-88
2023/12/26 02:46:00;;;;;;;13.07;1.50;;;9.30;99.90;;;;;;5014843;28;20406;-92
2023/12/26 02:48:26;;;;;;;11.68;1.48;;;9.20;99.90;;;;;;5013503;28;20606;-86
2023/12/26 02:50:53;;;;;;;12.10;1.40;;;9.20;99.90;;;;;;5031485;28;20437;-85
2023/12/26 02:53:19;;;;;;;13.97;1.77;;;9.30;99.90;;;;;;5013207;28;20988;-89
2023/12/26 02:55:45;;;;;;;12.45;1.23;;;9.00;99.90;;;;;;5014376;28;20404;-91
2023/12/26 02:58:11;;;;;;;12.60;1.30;;;9.30;99.90;;;;;;5013475;28;20448;-89
2023/12/26 03:00:37;;;;;;;12.23;1.20;;;9.50;99.90;;;;;;5013205;28;20868;-92
2023/12/26 03:03:02;;;;;;;12.88;1.25;;;9.00;99.90;;;;;;5030510;28;20417;-88
2023/12/26 03:05:28;;;;;;;10.33;1.43;;;9.00;99.90;;;;;;5012623;28;20429;-90
2023/12/26 03:07:54;;;;;;;13.63;1.25;;;9.60;99.90;;;;;;5014640;28;20539;-87
2023/12/26 03:10:19;;;;;;;11.15;1.17;;;9.10;99.90;;;;;;5012834;28;20420;-91
2023/12/26 03:12:45;;;;;;;12.07;1.57;;;8.90;99.90;;;;;;5013481;28;20444;-87
2023/12/26 03:15:12;;;;;;;11.70;1.23;;;9.00;99.90;;;;;;5012690;28;20431;-92
2023/12/26 03:17:37;;;;;;;11.85;1.42;;;9.10;99.90;;;;;;5016502;28;20467;-87
2023/12/26 03:20:04;;;;;;;13.67;1.03;;;8.80;99.90;;;;;;5013387;28;20417;-92
2023/12/26 03:22:29;;;;;;;12.18;1.25;;;8.80;99.90;;;;;;5018312;28;20401;-90
2023/12/26 03:24:55;;;;;;;18.83;2.20;;;8.70;99.90;;;;;;5020737;28;20429;-92
2023/12/26 03:27:21;;;;;;;13.70;1.50;;;9.20;99.90;;;;;;5021659;28;20520;-90
2023/12/26 03:29:47;;;;;;;15.95;1.40;;;8.70;99.90;;;;;;5014643;28;20425;-90
2023/12/26 03:32:15;;;;;;;12.48;1.95;;;8.60;99.90;;;;;;5029876;28;20432;-87
2023/12/26 03:34:41;;;;;;;16.65;2.20;;;8.60;99.90;;;;;;5046882;28;20405;-93
2023/12/26 03:37:07;;;;;;;18.00;2.07;;;8.70;99.90;;;;;;5013249;28;20754;-92
2023/12/26 03:39:33;;;;;;;17.00;1.97;;;8.60;99.90;;;;;;5016213;28;20769;-94
2023/12/26 03:41:59;;;;;;;16.80;2.05;;;8.60;99.90;;;;;;5014754;28;20766;-91
2023/12/26 03:44:26;;;;;;;15.93;2.30;;;8.60;99.90;;;;;;4998557;28;21176;-93
2023/12/26 03:46:51;;;;;;;16.88;1.83;;;8.20;99.90;;;;;;5002933;28;20405;-93
2023/12/26 03:49:17;;;;;;;19.02;2.22;;;8.70;99.90;;;;;;5016700;28;20501;-92
2023/12/26 03:51:47;;;;;;;18.53;1.93;;;8.40;99.90;;;;;;5014646;28;20705;-94
2023/12/26 03:54:14;;;;;;;17.88;2.13;;;8.40;99.90;;;;;;5014925;28;20411;-91
2023/12/26 03:56:39;;;;;;;17.60;1.98;;;8.40;99.90;;;;;;5015872;28;20413;-90
2023/12/26 03:59:06;;;;;;;14.20;1.70;;;8.30;99.90;;;;;;5014514;28;20447;-90
2023/12/26 04:01:31;;;;;;;17.27;2.13;;;8.40;99.90;;;;;;5016081;28;20496;-91
2023/12/26 04:03:57;;;;;;;15.70;1.77;;;8.70;99.90;;;;;;5013193;28;20440;-88
2023/12/26 04:06:23;;;;;;;21.17;2.60;;;8.40;99.90;;;;;;5013754;28;20474;-90
2023/12/26 04:08:49;;;;;;;16.60;2.20;;;8.80;99.90;;;;;;5015633;28;20894;-89
2023/12/26 04:11:15;;;;;;;22.40;2.83;;;8.50;99.90;;;;;;5016409;28;20413;-89
2023/12/26 04:13:40;;;;;;;18.58;2.10;;;8.30;99.90;;;;;;5015683;28;20397;-88
2023/12/26 04:16:06;;;;;;;17.60;2.13;;;8.50;99.90;;;;;;5014104;28;20445;-91
2023/12/26 04:18:33;;;;;;;12.88;1.52;;;8.40;99.90;;;;;;5014845;28;21042;-89
2023/12/26 04:20:59;;;;;;;12.95;1.77;;;8.20;99.90;;;;;;5024373;28;20400;-89
2023/12/26 04:23:25;;;;;;;17.27;2.17;;;8.20;99.90;;;;;;5021404;28;20415;-90
2023/12/26 04:25:51;;;;;;;16.70;2.45;;;8.70;99.90;;;;;;5013861;28;20433;-90
2023/12/26 04:28:17;;;;;;;13.85;1.90;;;8.20;99.90;;;;;;5013212;28;20693;-88
2023/12/26 04:30:42;;;;;;;15.90;2.08;;;8.30;99.90;;;;;;5013745;28;20420;-91
2023/12/26 04:33:10;;;;;;;16.73;2.15;;;8.50;99.90;;;;;;5013096;28;20413;-92
2023/12/26 04:35:36;;;;;;;16.00;2.05;;;8.30;99.90;;;;;;5029208;28;20412;-87
2023/12/26 04:38:02;;;;;;;17.77;2.30;;;8.00;99.90;;;;;;5012417;28;20912;-87
2023/12/26 04:40:28;;;;;;;18.27;2.17;;;8.10;99.90;;;;;;5013974;28;20405;-94
2023/12/26 04:42:57;;;;;;;16.02;1.80;;;8.40;99.90;;;;;;5013343;28;20399;-91
2023/12/26 04:45:23;;;;;;;19.52;2.33;;;8.70;99.90;;;;;;5012954;28;20472;-89
2023/12/26 04:47:49;;;;;;;16.67;2.22;;;8.10;99.90;;;;;;5011274;28;20428;-88
2023/12/26 04:50:14;;;;;;;14.83;1.73;;;8.30;99.90;;;;;;5015295;28;20538;-88
2023/12/26 04:52:40;;;;;;;16.97;2.23;;;8.20;99.90;;;;;;5011733;28;20409;-88
2023/12/26 04:55:06;;;;;;;18.75;2.13;;;8.10;99.90;;;;;;5012494;28;20748;-94
2023/12/26 04:57:32;;;;;;;14.82;1.25;;;8.10;99.90;;;;;;5013378;28;20421;-92
2023/12/26 04:59:57;;;;;;;14.40;1.92;;;8.20;99.90;;;;;;5012866;28;20401;-89
2023/12/26 05:02:23;;;;;;;14.63;1.60;;;8.10;99.90;;;;;;5013539;28;20731;-88
2023/12/26 05:04:49;;;;;;;15.10;1.67;;;8.30;99.90;;;;;;5011184;28;20797;-89
2023/12/26 05:07:14;;;;;;;14.77;2.58;;;8.30;99.90;;;;;;5030210;28;20478;-91
2023/12/26 05:09:40;;;;;;;16.90;1.70;;;8.50;99.90;;;;;;5028041;28;20896;-90
2023/12/26 05:12:06;;;;;;;13.95;1.70;;;8.20;99.90;;;;;;5029319;28;20488;-87
2023/12/26 05:14:32;;;;;;;16.07;1.70;;;8.20;99.90;;;;;;5029331;28;20394;-88
2023/12/26 05:16:58;;;;;;;17.87;1.80;;;8.30;99.90;;;;;;5013997;28;20498;-94
2023/12/26 05:19:31;;;;;;;17.33;2.10;;;8.40;99.90;;;;;;5014458;28;20488;-93
2023/12/26 05:21:57;;;;;;;12.65;1.50;;;8.40;99.90;;;;;;5013578;28;20409;-91
2023/12/26 05:24:23;;;;;;;14.00;1.73;;;8.40;99.90;;;;;;5013286;28;20425;-89
2023/12/26 05:26:48;;;;;;;14.05;1.70;;;8.60;99.90;;;;;;5012786;28;20509;-91
2023/12/26 05:29:23;;;;;;;12.20;1.23;;;8.90;99.90;;;;;;5015661;28;20405;-92
2023/12/26 05:31:48;;;;;;;16.20;2.22;;;8.70;99.90;;;;;;5027918;28;20420;-89
2023/12/26 05:34:15;;;;;;;15.10;1.52;;;8.60;99.90;;;;;;5013792;28;20742;-88
2023/12/26 05:36:40;;;;;;;13.65;1.85;;;8.70;99.90;;;;;;5014829;28;20409;-92
2023/12/26 05:39:08;;;;;;;14.02;1.52;;;8.50;99.90;;;;;;5012403;28;20422;-88
2023/12/26 05:41:33;;;;;;;13.77;1.58;;;8.60;99.90;;;;;;5011868;28;20401;-91
2023/12/26 05:43:59;;;;;;;13.82;1.67;;;8.60;99.90;;;;;;5015242;28;20433;-88
2023/12/26 05:46:29;;;;;;;12.30;1.45;;;8.80;99.90;;;;;;5011868;28;20401;-93
2023/12/26 05:48:55;;;;;;;12.45;1.58;;;8.70;99.90;;;;;;5012492;28;20410;-92
2023/12/26 05:51:21;;;;;;;13.68;1.67;;;8.90;99.90;;;;;;5013566;28;20815;-89
2023/12/26 05:53:46;;;;;;;10.83;1.20;;;8.70;99.90;;;;;;5014058;28;20413;-93
2023/12/26 05:56:12;;;;;;;13.53;1.47;;;8.80;99.90;;;;;;5012146;28;20401;-90
2023/12/26 05:58:41;;;;;;;14.65;1.60;;;9.60;99.90;;;;;;5012244;28;20476;-92
2023/12/26 06:01:10;;;;;;;11.90;1.50;;;9.00;99.90;;;;;;5012560;28;20431;-88
2023/12/26 06:03:37;;;;;;;10.97;1.73;;;8.80;99.90;;;;;;5011040;28;20498;-90
2023/12/26 06:06:04;;;;;;;13.43;1.40;;;9.00;99.90;;;;;;5012877;28;20433;-86
2023/12/26 06:08:30;;;;;;;12.48;1.38;;;8.80;99.90;;;;;;5012569;28;20940;-90
2023/12/26 06:10:56;;;;;;;13.68;1.77;;;8.90;99.90;;;;;;5011719;28;20437;-88
2023/12/26 06:13:22;;;;;;;15.45;2.03;;;9.00;99.90;;;;;;5029252;28;20406;-91
2023/12/26 06:15:47;;;;;;;13.63;1.80;;;8.90;99.90;;;;;;5016581;28;20414;-90
2023/12/26 06:18:13;;;;;;;13.57;2.10;;;8.70;99.90;;;;;;5018343;28;20413;-89
2023/12/26 06:20:39;;;;;;;13.57;1.63;;;8.70;99.90;;;;;;5031389;28;20908;-91
2023/12/26 06:23:04;;;;;;;11.02;1.52;;;8.60;99.90;;;;;;5017704;28;20825;-91
2023/12/26 06:25:30;;;;;;;14.05;1.50;;;8.60;99.90;;;;;;5016692;28;20429;-92
2023/12/26 06:27:55;;;;;;;16.90;2.30;;;8.50;99.90;;;;;;5015984;28;20863;-89
2023/12/26 06:30:21;;;;;;;15.30;1.77;;;8.20;99.90;;;;;;5018315;28;20848;-94
2023/12/26 06:32:49;;;;;;;13.88;1.83;;;8.40;99.90;;;;;;5018765;28;20417;-92
2023/12/26 06:35:14;;;;;;;12.63;2.03;;;8.40;99.90;;;;;;4998547;28;20776;-90
2023/12/26 06:37:40;;;;;;;16.85;2.10;;;8.50;99.90;;;;;;5014332;28;20397;-86
2023/12/26 06:40:06;;;;;;;15.53;2.03;;;8.30;99.90;;;;;;5014817;28;20402;-88
2023/12/26 06:42:32;;;;;;;16.23;2.15;;;8.20;99.90;;;;;;5014139;28;20448;-89
2023/12/26 06:44:57;;;;;;;18.57;2.20;;;8.40;99.90;;;;;;5032824;28;20511;-88
2023/12/26 06:47:32;;;;;;;18.07;2.43;;;8.30;99.90;;;;;;5030607;28;20405;-93
2023/12/26 06:49:58;;;;;;;16.92;2.28;;;8.80;99.90;;;;;;5016333;28;20410;-88
2023/12/26 06:52:26;;;;;;;18.42;2.70;;;8.40;99.90;;;;;;5030734;28;20611;-92
2023/12/26 06:54:52;;;;;;;16.23;2.13;;;8.40;99.90;;;;;;5014624;28;20568;-90
2023/12/26 06:57:17;;;;;;;17.30;2.35;;;8.40;99.90;;;;;;5014968;28;20912;-90
2023/12/26 06:59:53;;;;;;;17.10;2.03;;;8.30;99.90;;;;;;5014911;28;20488;-90
2023/12/26 07:02:19;;;;;;;18.27;2.72;;;8.80;99.90;;;;;;5033218;28;20452;-90
2023/12/26 07:04:44;;;;;;;15.95;1.92;;;8.70;99.90;;;;;;5014412;28;20429;-90
2023/12/26 07:07:11;;;;;;;16.65;2.60;;;9.00;99.90;;;;;;5014155;28;20485;-91
2023/12/26 07:09:38;;;;;;;19.48;2.60;;;9.00;99.90;;;;;;5013246;28;20413;-89
2023/12/26 07:12:09;;;;;;;14.65;2.67;;;8.50;99.90;;;;;;5048117;28;20811;-94
2023/12/26 07:14:35;;;;;;;17.10;2.45;;;8.80;99.90;;;;;;5030848;28;20833;-88
2023/12/26 07:17:01;;;;;;;15.80;2.37;;;8.80;99.90;;;;;;5014078;28;20442;-92
2023/12/26 07:19:27;;;;;;;20.27;3.03;;;8.50;99.90;;;;;;5015060;28;20412;-90
2023/12/26 07:21:54;;;;;;;15.30;1.90;;;8.70;99.90;;;;;;5015797;28;20474;-91
2023/12/26 07:24:22;;;;;;;18.58;2.38;;;8.50;99.90;;;;;;5011612;28;20485;-91
2023/12/26 07:26:48;;;;;;;17.58;2.60;;;8.60;99.90;;;;;;5011021;28;20796;-90
2023/12/26 07:29:14;;;;;;;17.45;2.63;;;8.80;99.90;;;;;;5015308;28;20405;-92
2023/12/26 07:31:39;;;;;;;16.63;2.40;;;8.70;99.90;;;;;;5064092;28;20905;-92
2023/12/26 07:34:08;;;;;;;17.00;2.77;;;8.50;99.90;;;;;;5013301;28;20470;-90
2023/12/26 07:36:40;;;;;;;17.58;2.13;;;8.80;99.90;;;;;;5012850;28;20406;-91
2023/12/26 07:39:06;;;;;;;18.67;2.20;;;8.50;99.90;;;;;;5013266;28;20401;-90
2023/12/26 07:41:34;;;;;;;17.40;2.10;;;8.50;99.90;;;;;;5012803;28;20394;-96
2023/12/26 07:44:00;;;;;;;22.88;3.25;;;8.30;99.90;;;;;;5015456;28;21029;-87
2023/12/26 07:46:26;;;;;;;15.75;2.45;;;8.20;99.90;;;;;;5031074;28;20504;-92
2023/12/26 07:48:52;;;;;;;14.90;2.55;;;8.30;99.90;;;;;;5014500;28;20405;-92
2023/12/26 07:51:17;;;;;;;17.65;2.30;;;8.70;99.90;;;;;;5013232;28;20460;-88
2023/12/26 07:53:43;;;;;;;18.27;2.20;;;8.30;99.90;;;;;;5011629;28;20497;-91
2023/12/26 07:56:09;;;;;;;17.37;2.17;;;8.20;99.90;;;;;;5014500;28;20402;-89
2023/12/26 07:58:35;;;;;;;15.00;1.77;;;8.30;99.90;;;;;;5013265;28;20844;-88
2023/12/26 08:01:02;;;;;;;19.15;2.53;;;8.20;99.90;;;;;;5012335;28;21010;-89
2023/12/26 08:03:27;;;;;;;15.43;1.98;;;8.20;99.90;;;;;;5014846;28;20409;-88
2023/12/26 08:05:53;;;;;;;17.23;1.92;;;8.20;99.90;;;;;;5012666;28;20436;-91
2023/12/26 08:08:19;;;;;;;17.07;2.40;;;8.30;99.90;;;;;;5045582;28;20401;-89
2023/12/26 08:10:47;;;;;;;15.63;2.17;;;8.20;99.90;;;;;;5016619;28;20416;-91
2023/12/26 08:13:13;;;;;;;14.98;2.25;;;8.20;99.90;;;;;;5048585;28;20432;-92
2023/12/26 08:15:39;;;;;;;18.88;2.40;;;8.40;99.90;;;;;;5012872;28;20405;-89
2023/12/26 08:18:05;;;;;;;15.83;1.93;;;8.40;99.90;;;;;;5014011;28;20412;-88
2023/12/26 08:20:37;;;;;;;20.80;2.72;;;8.40;99.90;;;;;;5014751;28;20938;-90
2023/12/26 08:23:02;;;;;;;17.63;2.10;;;8.70;99.90;;;;;;5033339;28;20511;-89
2023/12/26 08:25:28;;;;;;;17.33;2.10;;;8.40;99.90;;;;;;5013977;28;20436;-89
2023/12/26 08:27:54;;;;;;;18.55;2.35;;;8.70;99.90;;;;;;5016853;28;20402;-90
2023/12/26 08:30:20;;;;;;;15.40;1.85;;;8.60;99.90;;;;;;5014773;28;20916;-91
2023/12/26 08:33:01;;;;;;;12.00;2.03;;;8.60;99.90;;;;;;5012616;28;20576;-93
2023/12/26 08:35:32;;;;;;;22.48;2.60;;;8.60;99.90;;;;;;5015546;28;20421;-92
2023/12/26 08:37:58;;;;;;;17.67;2.53;;;8.50;99.90;;;;;;5017442;28;20658;-91
2023/12/26 08:40:23;;;;;;;15.40;1.88;;;8.60;99.90;;;;;;5031780;28;20393;-91
2023/12/26 08:42:49;;;;;;;14.87;1.87;;;8.60;99.90;;;;;;5013540;28;20574;-94
2023/12/26 08:45:15;;;;;;;16.50;2.37;;;8.70;99.90;;;;;;5014344;28;20434;-89
2023/12/26 08:47:40;;;;;;;13.00;2.03;;;8.40;99.90;;;;;;5013823;28;20427;-90
2023/12/26 08:50:06;;;;;;;21.90;2.73;;;8.80;99.90;;;;;;5014365;28;20414;-92
2023/12/26 08:52:32;;;;;;;18.25;2.20;;;8.60;99.90;;;;;;5012869;28;20459;-91
2023/12/26 08:55:01;;;;;;;18.10;2.13;;;8.70;99.90;;;;;;5014436;28;20409;-91
2023/12/26 08:57:27;;;;;;;15.98;1.92;;;8.70;99.90;;;;;;5014825;28;20490;-92
2023/12/26 08:59:53;;;;;;;14.93;2.13;;;8.90;99.90;;;;;;5017274;28;20507;-93
2023/12/26 09:02:21;;;;;;;16.23;2.38;;;8.80;99.90;;;;;;5017023;28;20456;-93
2023/12/26 09:04:47;;;;;;;15.68;2.53;;;8.70;99.90;;;;;;5015364;28;20430;-90
2023/12/26 09:07:16;;;;;;;15.88;2.50;;;9.00;99.90;;;;;;5013500;28;20400;-92
2023/12/26 09:09:42;;;;;;;14.90;1.92;;;8.70;99.90;;;;;;5015940;28;20413;-92
2023/12/26 09:12:12;;;;;;;15.18;2.33;;;9.00;99.90;;;;;;5016740;28;20402;-92
2023/12/26 09:14:38;;;;;;;13.32;1.90;;;9.00;99.90;;;;;;5019380;28;20441;-91
2023/12/26 09:17:07;;;;;;;16.42;2.33;;;8.80;99.90;;;;;;5029759;28;20422;-92
2023/12/26 09:19:41;;;;;;;15.02;1.70;;;8.80;99.90;;;;;;5034182;28;20420;-92
2023/12/26 09:22:09;;;;;;;15.10;2.28;;;8.90;99.90;;;;;;5013202;28;20442;-88
2023/12/26 09:24:35;;;;;;;15.68;2.05;;;8.90;99.90;;;;;;5015115;28;20908;-91
2023/12/26 09:27:00;;;;;;;14.93;1.60;;;9.20;99.90;;;;;;5015717;28;20421;-90
2023/12/26 09:29:26;;;;;;;14.97;2.10;;;9.00;99.90;;;;;;5015127;28;20868;-90
2023/12/26 09:31:53;;;;;;;17.40;2.28;;;8.60;99.90;;;;;;5016092;28;20897;-93
2023/12/26 09:34:27;;;;;;;13.25;2.00;;;8.90;99.90;;;;;;5014023;28;21000;-92
2023/12/26 09:36:53;;;;;;;14.40;2.23;;;8.80;99.90;;;;;;5018316;28;20431;-92
2023/12/26 09:39:22;;;;;;;17.63;2.13;;;9.20;99.90;;;;;;5017031;28;20860;-93
2023/12/26 09:42:09;;;;;;;15.55;1.90;;;8.90;99.90;;;;;;5034581;28;20417;-94
2023/12/26 09:44:38;;;;;;;14.40;2.47;;;8.90;99.90;;;;;;5035099;28;20469;-93
2023/12/26 09:47:07;;;;;;;17.30;2.10;;;8.90;99.90;;;;;;4995790;28;20989;-93
2023/12/26 09:49:43;;;;;;;15.00;1.75;;;9.60;99.90;;;;;;5019283;28;20417;-93
2023/12/26 09:52:14;;;;;;;15.27;1.85;;;9.10;99.90;;;;;;5023401;28;20428;-91
2023/12/26 09:54:50;;;;;;;16.40;2.40;;;9.10;99.90;;;;;;5036113;28;20405;-92
2023/12/26 09:57:19;;;;;;;17.25;2.47;;;9.30;99.90;;;;;;5002302;28;20436;-93
2023/12/26 09:59:47;;;;;;;18.67;2.28;;;9.20;99.90;;;;;;5002714;28;20415;-92
2023/12/26 10:02:15;;;;;;;17.30;2.15;;;9.50;99.90;;;;;;5020908;28;20854;-93
2023/12/26 10:04:45;;;;;;;17.63;2.60;;;9.40;99.90;;;;;;5018863;28;20546;-93
2023/12/26 10:07:13;;;;;;;16.88;2.50;;;9.30;99.90;;;;;;5021289;28;20410;-90
2023/12/26 10:09:39;;;;;;;14.63;1.90;;;9.30;99.90;;;;;;5019222;28;20405;-91
2023/12/26 10:12:05;;;;;;;16.77;2.13;;;9.20;99.90;;;;;;5034322;28;20419;-90
2023/12/26 10:14:31;;;;;;;13.90;1.88;;;9.20;99.90;;;;;;5020140;28;20421;-89
2023/12/26 10:16:58;;;;;;;15.35;2.60;;;9.00;99.90;;;;;;5020092;28;20413;-91
2023/12/26 10:19:25;;;;;;;19.02;2.30;;;9.40;99.90;;;;;;5027463;28;20435;-93
2023/12/26 10:21:54;;;;;;;15.98;2.30;;;9.20;99.90;;;;;;5038441;28;20412;-93
2023/12/26 10:24:20;;;;;;;14.77;2.08;;;8.90;99.90;;;;;;5035845;28;20429;-90
2023/12/26 10:26:47;;;;;;;14.87;2.10;;;9.50;99.90;;;;;;5040010;28;20397;-89
2023/12/26 10:29:14;;;;;;;17.30;2.28;;;9.30;99.90;;;;;;5021664;28;20413;-92
2023/12/26 10:31:41;;;;;;;16.05;2.30;;;9.30;99.90;;;;;;5035772;28;20428;-94
2023/12/26 10:34:19;;;;;;;16.43;2.50;;;9.30;99.90;;;;;;5021800;28;20423;-94
2023/12/26 10:36:48;;;;;;;15.27;2.17;;;9.70;99.90;;;;;;5036336;28;20507;-92
2023/12/26 10:39:16;;;;;;;16.27;2.45;;;9.30;99.90;;;;;;5017454;28;20455;-92
2023/12/26 10:41:53;;;;;;;14.52;2.28;;;9.20;99.90;;;;;;5019726;28;20413;-90
2023/12/26 10:44:25;;;;;;;17.10;2.83;;;9.90;99.90;;;;;;5020118;28;20465;-94
2023/12/26 10:47:02;;;;;;;15.53;2.43;;;9.40;99.90;;;;;;5036668;28;20492;-93
2023/12/26 10:49:31;;;;;;;16.67;2.72;;;9.10;99.90;;;;;;5001237;28;20916;-93
2023/12/26 10:52:03;;;;;;;17.08;2.50;;;9.10;99.90;;;;;;5017646;28;20452;-90
2023/12/26 10:54:31;;;;;;;15.48;2.35;;;9.30;99.90;;;;;;5019424;28;20798;-92
2023/12/26 10:56:59;;;;;;;16.98;2.17;;;9.50;99.90;;;;;;5003815;28;20413;-91
2023/12/26 10:59:25;;;;;;;19.90;2.75;;;9.40;99.90;;;;;;5019699;28;20506;-95
2023/12/26 11:01:57;;;;;;;14.88;2.50;;;9.40;99.90;;;;;;5023820;28;20417;-94
2023/12/26 11:04:23;;;;;;;15.90;2.55;;;9.40;99.90;;;;;;5020656;28;20432;-91
2023/12/26 11:06:49;;;;;;;15.63;2.10;;;9.50;99.90;;;;;;5019646;28;20413;-89
2023/12/26 11:09:15;;;;;;;14.38;2.60;;;9.50;99.90;;;;;;5015957;28;20406;-91
2023/12/26 11:11:41;;;;;;;13.90;2.22;;;9.30;99.90;;;;;;5016336;28;20742;-89
2023/12/26 11:14:07;;;;;;;15.93;2.05;;;9.50;99.90;;;;;;5015617;28;20409;-91
2023/12/26 11:16:42;;;;;;;17.75;2.28;;;9.20;99.90;;;;;;5014470;28;20416;-94
2023/12/26 11:19:09;;;;;;;14.13;2.15;;;9.60;99.90;;;;;;5012274;28;20465;-93
2023/12/26 11:21:37;;;;;;;16.00;2.47;;;9.40;99.90;;;;;;5014478;28;20785;-92
2023/12/26 11:24:03;;;;;;;16.88;2.28;;;9.70;99.90;;;;;;5013682;28;20435;-91
2023/12/26 11:26:32;;;;;;;15.82;2.05;;;9.40;99.90;;;;;;5012981;28;20413;-92
2023/12/26 11:29:02;;;;;;;15.63;1.90;;;9.40;99.90;;;;;;5011855;28;20495;-91
2023/12/26 11:31:27;;;;;;;17.88;2.38;;;9.80;99.90;;;;;;5012088;28;20486;-92
2023/12/26 11:33:53;;;;;;;17.77;2.27;;;9.40;99.90;;;;;;5015349;28;20418;-88
2023/12/26 11:36:19;;;;;;;22.40;2.77;;;9.80;99.90;;;;;;5013307;28;20415;-91
2023/12/26 11:38:49;;;;;;;22.77;3.17;;;9.10;99.90;;;;;;5015603;28;20879;-93
2023/12/26 11:41:15;;;;;;;17.10;2.60;;;9.30;99.90;;;;;;5008147;28;20888;-92
2023/12/26 11:43:41;;;;;;;17.27;2.67;;;9.50;99.90;;;;;;5014349;28;20414;-92
2023/12/26 11:46:12;;;;;;;19.63;2.47;;;9.50;99.90;;;;;;5012697;28;20415;-92
2023/12/26 11:48:38;;;;;;;17.73;3.13;;;9.40;99.90;;;;;;5012414;28;20991;-93
2023/12/26 11:51:05;;;;;;;17.17;2.50;;;9.40;99.90;;;;;;5014101;28;20403;-91
2023/12/26 11:53:34;;;;;;;14.00;1.75;;;9.70;99.90;;;;;;5015943;28;20442;-93
2023/12/26 11:56:00;;;;;;;18.23;2.37;;;9.60;99.90;;;;;;5015926;28;20485;-90
2023/12/26 11:58:25;;;;;;;16.00;2.20;;;9.90;99.90;;;;;;5017427;28;20423;-93
2023/12/26 12:00:55;;;;;;;15.32;1.98;;;9.70;99.90;;;;;;5013639;28;20415;-91
2023/12/26 12:03:21;;;;;;;16.48;2.05;;;9.80;99.90;;;;;;5017346;28;20435;-93
2023/12/26 12:06:16;;;;;;;17.25;2.00;;;9.50;99.90;;;;;;5014022;28;20431;-92
2023/12/26 12:09:07;;;;;;;14.43;2.00;;;9.50;99.90;;;;;;5011435;28;20411;-92
2023/12/26 12:11:49;;;;;;;17.58;2.03;;;9.50;99.90;;;;;;5015490;28;20411;-92
2023/12/26 12:14:15;;;;;;;19.58;2.78;;;9.40;99.90;;;;;;5014977;28;20411;-91
2023/12/26 12:16:41;;;;;;;13.25;1.50;;;9.40;99.90;;;;;;5011932;28;20414;-93
2023/12/26 12:19:14;;;;;;;16.77;2.03;;;9.10;99.90;;;;;;5014982;28;20407;-94
2023/12/26 12:21:48;;;;;;;13.25;1.80;;;9.40;99.90;;;;;;5015714;28;20403;-92
2023/12/26 12:24:23;;;;;;;17.60;2.35;;;9.40;99.90;;;;;;5014754;28;20427;-93
2023/12/26 12:27:15;;;;;;;15.25;1.65;;;9.40;99.90;;;;;;5013179;28;20419;-90
2023/12/26 12:29:59;;;;;;;14.77;1.80;;;9.40;99.90;;;;;;5017885;28;20466;-92
2023/12/26 12:32:51;;;;;;;16.08;2.13;;;9.50;99.90;;;;;;5011903;28;20421;-94
2023/12/26 12:35:18;;;;;;;12.95;1.67;;;9.70;99.90;;;;;;5010912;28;20498;-94
2023/12/26 12:37:47;;;;;;;11.18;1.30;;;9.50;99.90;;;;;;5004459;28;20399;-89
2023/12/26 12:40:13;;;;;;;13.27;1.63;;;9.40;99.90;;;;;;5009080;28;20434;-90
2023/12/26 12:42:39;;;;;;;13.20;1.33;;;9.30;99.90;;;;;;5010545;28;20403;-90
2023/12/26 12:45:05;;;;;;;12.23;1.05;;;9.40;99.90;;;;;;5009607;28;20439;-90